sensor_id;sensor_type;location;lat;lon;timestamp;P1;durP1;ratioP1;P2;durP2;ratioP2
10725;SDS011;5414;59.782;16.378;2024-02-23T00:00:21;31.87;;;19.70;;
10725;SDS011;5414;59.782;16.378;2024-02-23T00:02:47;26.60;;;17.90;;
10725;SDS011;5414;59.782;16.378;2024-02-23T00:05:13;29.80;;;20.13;;
10725;SDS011;5414;59.782;16.378;2024-02-23T00:07:39;29.23;;;18.57;;
10725;SDS011;5414;59.782;16.378;2024-02-23T00:10:05;31.13;;;18.57;;
10725;SDS011;5414;59.782;16.378;2024-02-23T00:12:31;32.20;;;19.10;;
10725;SDS011;5414;59.782;16.378;2024-02-23T00:14:57;30.63;;;18.67;;
10725;SDS011;5414;59.782;16.378;2024-02-23T00:17:25;30.33;;;18.63;;
10725;SDS011;5414;59.782;16.378;2024-02-23T00:19:50;33.33;;;19.70;;
10725;SDS011;5414;59.782;16.378;2024-02-23T00:22:17;33.13;;;19.63;;
10725;SDS011;5414;59.782;16.378;2024-02-23T00:24:43;33.63;;;20.70;;
10725;SDS011;5414;59.782;16.378;2024-02-23T00:27:09;31.97;;;21.00;;
10725;SDS011;5414;59.782;16.378;2024-02-23T00:29:35;29.03;;;19.10;;
10725;SDS011;5414;59.782;16.378;2024-02-23T00:32:02;30.27;;;18.23;;
10725;SDS011;5414;59.782;16.378;2024-02-23T00:34:28;27.20;;;18.97;;
10725;SDS011;5414;59.782;16.378;2024-02-23T00:36:56;33.60;;;19.63;;
10725;SDS011;5414;59.782;16.378;2024-02-23T00:39:22;29.83;;;17.20;;
10725;SDS011;5414;59.782;16.378;2024-02-23T00:41:50;33.80;;;20.60;;
10725;SDS011;5414;59.782;16.378;2024-02-23T00:44:16;31.53;;;19.10;;
10725;SDS011;5414;59.782;16.378;2024-02-23T00:46:42;31.17;;;18.63;;
10725;SDS011;5414;59.782;16.378;2024-02-23T00:49:08;26.97;;;17.13;;
10725;SDS011;5414;59.782;16.378;2024-02-23T00:51:34;26.47;;;17.50;;
10725;SDS011;5414;59.782;16.378;2024-02-23T00:54:00;27.13;;;17.27;;
10725;SDS011;5414;59.782;16.378;2024-02-23T00:56:26;26.90;;;17.63;;
10725;SDS011;5414;59.782;16.378;2024-02-23T00:58:52;27.30;;;17.67;;
10725;SDS011;5414;59.782;16.378;2024-02-23T01:01:18;29.57;;;17.87;;
10725;SDS011;5414;59.782;16.378;2024-02-23T01:03:45;30.77;;;17.67;;
10725;SDS011;5414;59.782;16.378;2024-02-23T01:06:11;29.30;;;18.40;;
10725;SDS011;5414;59.782;16.378;2024-02-23T01:08:37;29.47;;;17.33;;
10725;SDS011;5414;59.782;16.378;2024-02-23T01:11:05;26.07;;;16.97;;
10725;SDS011;5414;59.782;16.378;2024-02-23T01:13:31;27.00;;;16.83;;
10725;SDS011;5414;59.782;16.378;2024-02-23T01:15:57;26.20;;;17.53;;
10725;SDS011;5414;59.782;16.378;2024-02-23T01:18:23;33.63;;;17.80;;
10725;SDS011;5414;59.782;16.378;2024-02-23T01:20:49;29.33;;;18.93;;
10725;SDS011;5414;59.782;16.378;2024-02-23T01:23:15;28.40;;;19.67;;
10725;SDS011;5414;59.782;16.378;2024-02-23T01:25:41;28.33;;;17.70;;
10725;SDS011;5414;59.782;16.378;2024-02-23T01:28:07;30.50;;;19.17;;
10725;SDS011;5414;59.782;16.378;2024-02-23T01:30:33;31.07;;;19.43;;
10725;SDS011;5414;59.782;16.378;2024-02-23T01:32:59;33.40;;;20.80;;
10725;SDS011;5414;59.782;16.378;2024-02-23T01:35:27;34.43;;;20.23;;
10725;SDS011;5414;59.782;16.378;2024-02-23T01:37:54;35.13;;;18.73;;
10725;SDS011;5414;59.782;16.378;2024-02-23T01:40:20;29.47;;;17.87;;
10725;SDS011;5414;59.782;16.378;2024-02-23T01:42:46;35.90;;;20.33;;
10725;SDS011;5414;59.782;16.378;2024-02-23T01:45:12;33.23;;;20.37;;
10725;SDS011;5414;59.782;16.378;2024-02-23T01:47:38;30.17;;;19.43;;
10725;SDS011;5414;59.782;16.378;2024-02-23T01:50:05;34.20;;;20.37;;
10725;SDS011;5414;59.782;16.378;2024-02-23T01:52:33;33.90;;;19.67;;
10725;SDS011;5414;59.782;16.378;2024-02-23T01:55:00;37.00;;;21.77;;
10725;SDS011;5414;59.782;16.378;2024-02-23T01:57:26;33.23;;;18.77;;
10725;SDS011;5414;59.782;16.378;2024-02-23T01:59:52;30.27;;;20.47;;
10725;SDS011;5414;59.782;16.378;2024-02-23T02:02:18;32.03;;;19.33;;
10725;SDS011;5414;59.782;16.378;2024-02-23T02:04:44;31.47;;;18.67;;
10725;SDS011;5414;59.782;16.378;2024-02-23T02:07:12;32.30;;;19.10;;
10725;SDS011;5414;59.782;16.378;2024-02-23T02:09:38;29.83;;;18.17;;
10725;SDS011;5414;59.782;16.378;2024-02-23T02:12:04;38.23;;;21.67;;
10725;SDS011;5414;59.782;16.378;2024-02-23T02:14:30;29.43;;;17.73;;
10725;SDS011;5414;59.782;16.378;2024-02-23T02:16:58;31.37;;;18.60;;
10725;SDS011;5414;59.782;16.378;2024-02-23T02:19:24;37.80;;;22.67;;
10725;SDS011;5414;59.782;16.378;2024-02-23T02:21:50;36.80;;;20.93;;
10725;SDS011;5414;59.782;16.378;2024-02-23T02:24:16;45.07;;;22.97;;
10725;SDS011;5414;59.782;16.378;2024-02-23T02:26:42;43.17;;;22.27;;
10725;SDS011;5414;59.782;16.378;2024-02-23T02:29:10;45.10;;;25.30;;
10725;SDS011;5414;59.782;16.378;2024-02-23T02:31:36;40.17;;;22.50;;
10725;SDS011;5414;59.782;16.378;2024-02-23T02:34:03;42.70;;;23.73;;
10725;SDS011;5414;59.782;16.378;2024-02-23T02:36:29;44.07;;;23.80;;
10725;SDS011;5414;59.782;16.378;2024-02-23T02:38:55;42.30;;;22.27;;
10725;SDS011;5414;59.782;16.378;2024-02-23T02:41:23;43.37;;;23.77;;
10725;SDS011;5414;59.782;16.378;2024-02-23T02:43:50;38.37;;;21.73;;
10725;SDS011;5414;59.782;16.378;2024-02-23T02:46:17;42.67;;;22.93;;
10725;SDS011;5414;59.782;16.378;2024-02-23T02:48:43;38.90;;;23.13;;
10725;SDS011;5414;59.782;16.378;2024-02-23T02:51:09;52.73;;;26.20;;
10725;SDS011;5414;59.782;16.378;2024-02-23T02:53:35;40.60;;;25.63;;
10725;SDS011;5414;59.782;16.378;2024-02-23T02:56:05;44.80;;;22.80;;
10725;SDS011;5414;59.782;16.378;2024-02-23T02:58:31;41.60;;;24.33;;
10725;SDS011;5414;59.782;16.378;2024-02-23T03:00:57;45.73;;;24.10;;
10725;SDS011;5414;59.782;16.378;2024-02-23T03:03:23;39.53;;;23.40;;
10725;SDS011;5414;59.782;16.378;2024-02-23T03:05:49;45.27;;;25.13;;
10725;SDS011;5414;59.782;16.378;2024-02-23T03:08:15;44.53;;;25.17;;
10725;SDS011;5414;59.782;16.378;2024-02-23T03:10:41;39.10;;;22.93;;
10725;SDS011;5414;59.782;16.378;2024-02-23T03:13:07;37.97;;;23.23;;
10725;SDS011;5414;59.782;16.378;2024-02-23T03:15:33;39.60;;;23.40;;
10725;SDS011;5414;59.782;16.378;2024-02-23T03:18:00;41.40;;;23.97;;
10725;SDS011;5414;59.782;16.378;2024-02-23T03:20:27;38.67;;;23.80;;
10725;SDS011;5414;59.782;16.378;2024-02-23T03:22:53;36.47;;;22.97;;
10725;SDS011;5414;59.782;16.378;2024-02-23T03:25:20;35.70;;;21.57;;
10725;SDS011;5414;59.782;16.378;2024-02-23T03:27:45;30.83;;;20.47;;
10725;SDS011;5414;59.782;16.378;2024-02-23T03:30:11;33.73;;;21.00;;
10725;SDS011;5414;59.782;16.378;2024-02-23T03:32:39;32.23;;;21.07;;
10725;SDS011;5414;59.782;16.378;2024-02-23T03:35:05;32.73;;;21.10;;
10725;SDS011;5414;59.782;16.378;2024-02-23T03:37:33;31.93;;;21.77;;
10725;SDS011;5414;59.782;16.378;2024-02-23T03:39:59;35.60;;;22.17;;
10725;SDS011;5414;59.782;16.378;2024-02-23T03:42:25;39.77;;;23.90;;
10725;SDS011;5414;59.782;16.378;2024-02-23T03:44:52;35.80;;;24.07;;
10725;SDS011;5414;59.782;16.378;2024-02-23T03:47:18;35.40;;;23.40;;
10725;SDS011;5414;59.782;16.378;2024-02-23T03:49:44;32.77;;;21.70;;
10725;SDS011;5414;59.782;16.378;2024-02-23T03:52:10;36.10;;;25.63;;
10725;SDS011;5414;59.782;16.378;2024-02-23T03:54:36;33.93;;;21.67;;
10725;SDS011;5414;59.782;16.378;2024-02-23T03:57:02;39.37;;;25.30;;
10725;SDS011;5414;59.782;16.378;2024-02-23T03:59:28;35.73;;;22.63;;
10725;SDS011;5414;59.782;16.378;2024-02-23T04:01:54;32.40;;;23.03;;
10725;SDS011;5414;59.782;16.378;2024-02-23T04:04:20;31.60;;;21.63;;
10725;SDS011;5414;59.782;16.378;2024-02-23T04:06:47;34.63;;;22.10;;
10725;SDS011;5414;59.782;16.378;2024-02-23T04:09:13;35.13;;;24.10;;
10725;SDS011;5414;59.782;16.378;2024-02-23T04:11:39;42.20;;;26.30;;
10725;SDS011;5414;59.782;16.378;2024-02-23T04:14:05;34.33;;;24.30;;
10725;SDS011;5414;59.782;16.378;2024-02-23T04:16:31;32.97;;;21.67;;
10725;SDS011;5414;59.782;16.378;2024-02-23T04:18:57;40.67;;;26.53;;
10725;SDS011;5414;59.782;16.378;2024-02-23T04:21:24;41.60;;;26.03;;
10725;SDS011;5414;59.782;16.378;2024-02-23T04:23:50;36.83;;;21.77;;
10725;SDS011;5414;59.782;16.378;2024-02-23T04:26:16;30.73;;;21.90;;
10725;SDS011;5414;59.782;16.378;2024-02-23T04:28:42;40.00;;;24.90;;
10725;SDS011;5414;59.782;16.378;2024-02-23T04:31:09;36.37;;;22.93;;
10725;SDS011;5414;59.782;16.378;2024-02-23T04:33:35;38.07;;;23.50;;
10725;SDS011;5414;59.782;16.378;2024-02-23T04:36:02;37.07;;;23.00;;
10725;SDS011;5414;59.782;16.378;2024-02-23T04:38:28;34.67;;;22.90;;
10725;SDS011;5414;59.782;16.378;2024-02-23T04:40:54;36.00;;;22.97;;
10725;SDS011;5414;59.782;16.378;2024-02-23T04:43:21;34.43;;;23.07;;
10725;SDS011;5414;59.782;16.378;2024-02-23T04:45:48;32.63;;;23.23;;
10725;SDS011;5414;59.782;16.378;2024-02-23T04:48:14;29.90;;;21.43;;
10725;SDS011;5414;59.782;16.378;2024-02-23T04:50:40;32.73;;;21.70;;
10725;SDS011;5414;59.782;16.378;2024-02-23T04:53:06;30.70;;;21.50;;
10725;SDS011;5414;59.782;16.378;2024-02-23T04:55:33;27.83;;;20.17;;
10725;SDS011;5414;59.782;16.378;2024-02-23T04:57:59;27.67;;;18.07;;
10725;SDS011;5414;59.782;16.378;2024-02-23T05:00:25;27.67;;;18.80;;
10725;SDS011;5414;59.782;16.378;2024-02-23T05:02:57;28.67;;;18.20;;
10725;SDS011;5414;59.782;16.378;2024-02-23T05:05:23;28.80;;;20.47;;
10725;SDS011;5414;59.782;16.378;2024-02-23T05:07:49;27.83;;;19.93;;
10725;SDS011;5414;59.782;16.378;2024-02-23T05:10:15;30.93;;;20.23;;
10725;SDS011;5414;59.782;16.378;2024-02-23T05:12:42;35.33;;;21.83;;
10725;SDS011;5414;59.782;16.378;2024-02-23T05:15:08;33.33;;;22.03;;
10725;SDS011;5414;59.782;16.378;2024-02-23T05:17:34;34.23;;;21.00;;
10725;SDS011;5414;59.782;16.378;2024-02-23T05:20:00;39.37;;;23.37;;
10725;SDS011;5414;59.782;16.378;2024-02-23T05:22:32;34.87;;;22.90;;
10725;SDS011;5414;59.782;16.378;2024-02-23T05:24:58;33.63;;;22.90;;
10725;SDS011;5414;59.782;16.378;2024-02-23T05:27:25;33.03;;;22.63;;
10725;SDS011;5414;59.782;16.378;2024-02-23T05:29:52;32.30;;;23.57;;
10725;SDS011;5414;59.782;16.378;2024-02-23T05:32:18;35.50;;;23.33;;
10725;SDS011;5414;59.782;16.378;2024-02-23T05:34:44;38.83;;;27.17;;
10725;SDS011;5414;59.782;16.378;2024-02-23T05:37:12;38.77;;;25.87;;
10725;SDS011;5414;59.782;16.378;2024-02-23T05:39:38;39.13;;;27.30;;
10725;SDS011;5414;59.782;16.378;2024-02-23T05:42:04;43.83;;;28.13;;
10725;SDS011;5414;59.782;16.378;2024-02-23T05:44:30;40.43;;;27.40;;
10725;SDS011;5414;59.782;16.378;2024-02-23T05:46:56;41.87;;;29.63;;
10725;SDS011;5414;59.782;16.378;2024-02-23T05:49:22;38.50;;;25.53;;
10725;SDS011;5414;59.782;16.378;2024-02-23T05:51:50;37.23;;;25.67;;
10725;SDS011;5414;59.782;16.378;2024-02-23T05:54:16;35.73;;;26.63;;
10725;SDS011;5414;59.782;16.378;2024-02-23T05:56:43;35.77;;;25.00;;
10725;SDS011;5414;59.782;16.378;2024-02-23T05:59:10;35.83;;;24.77;;
10725;SDS011;5414;59.782;16.378;2024-02-23T06:01:36;35.67;;;27.40;;
10725;SDS011;5414;59.782;16.378;2024-02-23T06:04:02;32.77;;;24.67;;
10725;SDS011;5414;59.782;16.378;2024-02-23T06:06:30;39.20;;;27.00;;
10725;SDS011;5414;59.782;16.378;2024-02-23T06:08:56;33.03;;;24.97;;
10725;SDS011;5414;59.782;16.378;2024-02-23T06:11:22;34.30;;;24.23;;
10725;SDS011;5414;59.782;16.378;2024-02-23T06:13:49;31.83;;;21.90;;
10725;SDS011;5414;59.782;16.378;2024-02-23T06:16:16;29.90;;;21.60;;
10725;SDS011;5414;59.782;16.378;2024-02-23T06:18:42;26.80;;;20.50;;
10725;SDS011;5414;59.782;16.378;2024-02-23T06:21:15;24.20;;;18.43;;
10725;SDS011;5414;59.782;16.378;2024-02-23T06:23:42;29.90;;;23.17;;
10725;SDS011;5414;59.782;16.378;2024-02-23T06:26:08;24.57;;;19.83;;
10725;SDS011;5414;59.782;16.378;2024-02-23T06:28:35;27.30;;;21.23;;
10725;SDS011;5414;59.782;16.378;2024-02-23T06:31:02;24.40;;;18.40;;
10725;SDS011;5414;59.782;16.378;2024-02-23T06:33:29;24.97;;;20.97;;
10725;SDS011;5414;59.782;16.378;2024-02-23T06:35:55;23.60;;;19.70;;
10725;SDS011;5414;59.782;16.378;2024-02-23T06:38:23;21.73;;;17.20;;
10725;SDS011;5414;59.782;16.378;2024-02-23T06:40:49;21.40;;;17.07;;
10725;SDS011;5414;59.782;16.378;2024-02-23T06:43:15;21.37;;;16.87;;
10725;SDS011;5414;59.782;16.378;2024-02-23T06:45:41;21.13;;;18.20;;
10725;SDS011;5414;59.782;16.378;2024-02-23T06:48:07;21.87;;;18.23;;
10725;SDS011;5414;59.782;16.378;2024-02-23T06:50:33;21.10;;;18.83;;
10725;SDS011;5414;59.782;16.378;2024-02-23T06:52:59;20.93;;;16.57;;
10725;SDS011;5414;59.782;16.378;2024-02-23T06:55:25;18.47;;;16.43;;
10725;SDS011;5414;59.782;16.378;2024-02-23T06:57:53;18.53;;;15.83;;
10725;SDS011;5414;59.782;16.378;2024-02-23T07:00:19;16.57;;;14.87;;
10725;SDS011;5414;59.782;16.378;2024-02-23T07:02:46;18.83;;;15.60;;
10725;SDS011;5414;59.782;16.378;2024-02-23T07:05:12;16.73;;;13.63;;
10725;SDS011;5414;59.782;16.378;2024-02-23T07:07:39;14.10;;;12.07;;
10725;SDS011;5414;59.782;16.378;2024-02-23T07:10:06;15.80;;;14.20;;
10725;SDS011;5414;59.782;16.378;2024-02-23T07:12:32;14.50;;;13.00;;
10725;SDS011;5414;59.782;16.378;2024-02-23T07:14:58;13.30;;;11.90;;
10725;SDS011;5414;59.782;16.378;2024-02-23T07:17:24;13.83;;;11.53;;
10725;SDS011;5414;59.782;16.378;2024-02-23T07:19:50;11.73;;;10.53;;
10725;SDS011;5414;59.782;16.378;2024-02-23T07:22:17;12.47;;;11.17;;
10725;SDS011;5414;59.782;16.378;2024-02-23T07:24:45;12.57;;;10.73;;
10725;SDS011;5414;59.782;16.378;2024-02-23T07:27:11;10.77;;;9.67;;
10725;SDS011;5414;59.782;16.378;2024-02-23T07:29:37;10.73;;;9.73;;
10725;SDS011;5414;59.782;16.378;2024-02-23T07:32:03;11.00;;;10.00;;
10725;SDS011;5414;59.782;16.378;2024-02-23T07:34:30;10.90;;;9.90;;
10725;SDS011;5414;59.782;16.378;2024-02-23T07:36:56;11.13;;;10.03;;
10725;SDS011;5414;59.782;16.378;2024-02-23T07:39:22;10.20;;;9.30;;
10725;SDS011;5414;59.782;16.378;2024-02-23T07:41:48;10.13;;;9.13;;
10725;SDS011;5414;59.782;16.378;2024-02-23T07:44:14;7.60;;;6.80;;
10725;SDS011;5414;59.782;16.378;2024-02-23T07:46:40;8.43;;;7.67;;
10725;SDS011;5414;59.782;16.378;2024-02-23T07:49:07;8.80;;;8.00;;
10725;SDS011;5414;59.782;16.378;2024-02-23T07:51:33;7.40;;;6.50;;
10725;SDS011;5414;59.782;16.378;2024-02-23T07:53:59;7.80;;;7.10;;
10725;SDS011;5414;59.782;16.378;2024-02-23T07:56:26;7.80;;;6.87;;
10725;SDS011;5414;59.782;16.378;2024-02-23T07:58:53;6.03;;;5.53;;
10725;SDS011;5414;59.782;16.378;2024-02-23T08:01:19;6.40;;;5.90;;
10725;SDS011;5414;59.782;16.378;2024-02-23T08:03:45;6.87;;;6.17;;
10725;SDS011;5414;59.782;16.378;2024-02-23T08:06:11;7.83;;;7.13;;
10725;SDS011;5414;59.782;16.378;2024-02-23T08:08:39;6.73;;;6.13;;
10725;SDS011;5414;59.782;16.378;2024-02-23T08:11:05;6.90;;;6.27;;
10725;SDS011;5414;59.782;16.378;2024-02-23T08:13:31;6.63;;;6.03;;
10725;SDS011;5414;59.782;16.378;2024-02-23T08:15:59;8.10;;;7.30;;
10725;SDS011;5414;59.782;16.378;2024-02-23T08:18:25;7.80;;;7.10;;
10725;SDS011;5414;59.782;16.378;2024-02-23T08:20:53;7.63;;;6.93;;
10725;SDS011;5414;59.782;16.378;2024-02-23T08:23:19;7.00;;;6.30;;
10725;SDS011;5414;59.782;16.378;2024-02-23T08:25:45;6.40;;;5.90;;
10725;SDS011;5414;59.782;16.378;2024-02-23T08:28:11;7.07;;;6.43;;
10725;SDS011;5414;59.782;16.378;2024-02-23T08:30:37;7.20;;;6.50;;
10725;SDS011;5414;59.782;16.378;2024-02-23T08:33:03;6.43;;;5.93;;
10725;SDS011;5414;59.782;16.378;2024-02-23T08:35:31;6.27;;;5.67;;
10725;SDS011;5414;59.782;16.378;2024-02-23T08:37:58;6.17;;;5.57;;
10725;SDS011;5414;59.782;16.378;2024-02-23T08:40:24;6.63;;;6.03;;
10725;SDS011;5414;59.782;16.378;2024-02-23T08:42:49;6.33;;;5.73;;
10725;SDS011;5414;59.782;16.378;2024-02-23T08:45:16;8.27;;;7.57;;
10725;SDS011;5414;59.782;16.378;2024-02-23T08:47:42;7.93;;;7.23;;
10725;SDS011;5414;59.782;16.378;2024-02-23T08:50:09;8.27;;;7.47;;
10725;SDS011;5414;59.782;16.378;2024-02-23T08:52:35;7.27;;;6.60;;
10725;SDS011;5414;59.782;16.378;2024-02-23T08:55:01;8.20;;;7.50;;
10725;SDS011;5414;59.782;16.378;2024-02-23T08:57:27;7.90;;;7.20;;
10725;SDS011;5414;59.782;16.378;2024-02-23T08:59:53;7.80;;;7.10;;
10725;SDS011;5414;59.782;16.378;2024-02-23T09:02:22;7.20;;;6.50;;
10725;SDS011;5414;59.782;16.378;2024-02-23T09:04:48;8.67;;;7.87;;
10725;SDS011;5414;59.782;16.378;2024-02-23T09:07:14;9.97;;;9.07;;
10725;SDS011;5414;59.782;16.378;2024-02-23T09:09:40;8.43;;;7.63;;
10725;SDS011;5414;59.782;16.378;2024-02-23T09:12:06;8.03;;;7.33;;
10725;SDS011;5414;59.782;16.378;2024-02-23T09:14:35;8.40;;;7.60;;
10725;SDS011;5414;59.782;16.378;2024-02-23T09:17:02;7.50;;;6.80;;
10725;SDS011;5414;59.782;16.378;2024-02-23T09:19:29;7.60;;;6.90;;
10725;SDS011;5414;59.782;16.378;2024-02-23T09:21:55;7.80;;;7.00;;
10725;SDS011;5414;59.782;16.378;2024-02-23T09:24:21;7.10;;;6.40;;
10725;SDS011;5414;59.782;16.378;2024-02-23T09:26:47;7.33;;;6.63;;
10725;SDS011;5414;59.782;16.378;2024-02-23T09:29:14;7.07;;;6.40;;
10725;SDS011;5414;59.782;16.378;2024-02-23T09:31:42;7.23;;;6.53;;
10725;SDS011;5414;59.782;16.378;2024-02-23T09:34:08;7.47;;;6.63;;
10725;SDS011;5414;59.782;16.378;2024-02-23T09:36:34;8.37;;;7.50;;
10725;SDS011;5414;59.782;16.378;2024-02-23T09:39:00;7.30;;;6.70;;
10725;SDS011;5414;59.782;16.378;2024-02-23T09:41:27;6.97;;;6.27;;
10725;SDS011;5414;59.782;16.378;2024-02-23T09:43:53;6.87;;;5.77;;
10725;SDS011;5414;59.782;16.378;2024-02-23T09:46:23;6.30;;;5.73;;
10725;SDS011;5414;59.782;16.378;2024-02-23T09:48:51;7.13;;;6.43;;
10725;SDS011;5414;59.782;16.378;2024-02-23T09:51:17;6.87;;;6.27;;
10725;SDS011;5414;59.782;16.378;2024-02-23T09:53:43;6.10;;;5.53;;
10725;SDS011;5414;59.782;16.378;2024-02-23T09:56:09;5.53;;;5.03;;
10725;SDS011;5414;59.782;16.378;2024-02-23T09:58:36;4.33;;;3.93;;
10725;SDS011;5414;59.782;16.378;2024-02-23T10:01:02;3.23;;;2.93;;
10725;SDS011;5414;59.782;16.378;2024-02-23T10:03:29;3.37;;;2.73;;
10725;SDS011;5414;59.782;16.378;2024-02-23T10:05:56;3.57;;;2.40;;
10725;SDS011;5414;59.782;16.378;2024-02-23T10:08:22;2.10;;;1.80;;
10725;SDS011;5414;59.782;16.378;2024-02-23T10:10:48;2.53;;;1.80;;
10725;SDS011;5414;59.782;16.378;2024-02-23T10:13:22;1.50;;;1.40;;
10725;SDS011;5414;59.782;16.378;2024-02-23T10:15:49;1.57;;;1.30;;
10725;SDS011;5414;59.782;16.378;2024-02-23T10:18:16;2.93;;;1.80;;
10725;SDS011;5414;59.782;16.378;2024-02-23T10:20:43;1.90;;;1.70;;
10725;SDS011;5414;59.782;16.378;2024-02-23T10:23:09;1.60;;;0.90;;
10725;SDS011;5414;59.782;16.378;2024-02-23T10:25:35;1.40;;;0.80;;
10725;SDS011;5414;59.782;16.378;2024-02-23T10:28:05;2.40;;;0.80;;
10725;SDS011;5414;59.782;16.378;2024-02-23T10:30:33;1.70;;;0.80;;
10725;SDS011;5414;59.782;16.378;2024-02-23T10:32:59;1.77;;;0.70;;
10725;SDS011;5414;59.782;16.378;2024-02-23T10:35:25;1.17;;;0.70;;
10725;SDS011;5414;59.782;16.378;2024-02-23T10:37:55;2.07;;;0.50;;
10725;SDS011;5414;59.782;16.378;2024-02-23T10:40:21;1.57;;;0.60;;
10725;SDS011;5414;59.782;16.378;2024-02-23T10:42:48;1.87;;;0.60;;
10725;SDS011;5414;59.782;16.378;2024-02-23T10:45:19;1.13;;;0.73;;
10725;SDS011;5414;59.782;16.378;2024-02-23T10:47:47;1.40;;;0.67;;
10725;SDS011;5414;59.782;16.378;2024-02-23T10:50:13;1.30;;;0.40;;
10725;SDS011;5414;59.782;16.378;2024-02-23T10:52:41;2.47;;;0.70;;
10725;SDS011;5414;59.782;16.378;2024-02-23T10:55:10;3.37;;;0.90;;
10725;SDS011;5414;59.782;16.378;2024-02-23T10:57:38;1.67;;;0.50;;
10725;SDS011;5414;59.782;16.378;2024-02-23T11:00:04;2.50;;;0.67;;
10725;SDS011;5414;59.782;16.378;2024-02-23T11:02:41;1.13;;;0.57;;
10725;SDS011;5414;59.782;16.378;2024-02-23T11:05:08;3.50;;;0.73;;
10725;SDS011;5414;59.782;16.378;2024-02-23T11:07:40;1.90;;;0.90;;
10725;SDS011;5414;59.782;16.378;2024-02-23T11:10:06;2.70;;;0.70;;
10725;SDS011;5414;59.782;16.378;2024-02-23T11:12:34;3.00;;;0.60;;
10725;SDS011;5414;59.782;16.378;2024-02-23T11:15:00;1.67;;;0.67;;
10725;SDS011;5414;59.782;16.378;2024-02-23T11:17:27;1.60;;;0.57;;
10725;SDS011;5414;59.782;16.378;2024-02-23T11:19:55;1.03;;;0.50;;
10725;SDS011;5414;59.782;16.378;2024-02-23T11:22:24;2.70;;;0.70;;
10725;SDS011;5414;59.782;16.378;2024-02-23T11:24:59;3.07;;;0.70;;
10725;SDS011;5414;59.782;16.378;2024-02-23T11:27:29;2.73;;;0.67;;
10725;SDS011;5414;59.782;16.378;2024-02-23T11:29:59;2.53;;;0.50;;
10725;SDS011;5414;59.782;16.378;2024-02-23T11:32:34;2.97;;;0.60;;
10725;SDS011;5414;59.782;16.378;2024-02-23T11:35:01;1.20;;;0.50;;
10725;SDS011;5414;59.782;16.378;2024-02-23T11:37:30;1.47;;;0.57;;
10725;SDS011;5414;59.782;16.378;2024-02-23T11:40:00;1.90;;;0.77;;
10725;SDS011;5414;59.782;16.378;2024-02-23T11:42:28;1.97;;;0.63;;
10725;SDS011;5414;59.782;16.378;2024-02-23T11:44:55;2.13;;;0.67;;
10725;SDS011;5414;59.782;16.378;2024-02-23T11:47:23;2.10;;;0.73;;
10725;SDS011;5414;59.782;16.378;2024-02-23T11:49:50;2.53;;;0.80;;
10725;SDS011;5414;59.782;16.378;2024-02-23T11:52:15;2.07;;;0.80;;
10725;SDS011;5414;59.782;16.378;2024-02-23T11:54:42;2.77;;;0.90;;
10725;SDS011;5414;59.782;16.378;2024-02-23T11:57:10;4.37;;;1.07;;
10725;SDS011;5414;59.782;16.378;2024-02-23T11:59:36;4.20;;;1.20;;
10725;SDS011;5414;59.782;16.378;2024-02-23T12:02:02;2.00;;;0.80;;
10725;SDS011;5414;59.782;16.378;2024-02-23T12:04:28;5.67;;;1.30;;
10725;SDS011;5414;59.782;16.378;2024-02-23T12:06:54;3.00;;;1.00;;
10725;SDS011;5414;59.782;16.378;2024-02-23T12:09:20;4.13;;;1.10;;
10725;SDS011;5414;59.782;16.378;2024-02-23T12:11:46;5.20;;;1.27;;
10725;SDS011;5414;59.782;16.378;2024-02-23T12:14:13;3.73;;;1.10;;
10725;SDS011;5414;59.782;16.378;2024-02-23T12:16:39;3.03;;;1.10;;
10725;SDS011;5414;59.782;16.378;2024-02-23T12:19:07;4.90;;;1.03;;
10725;SDS011;5414;59.782;16.378;2024-02-23T12:21:36;7.00;;;1.53;;
10725;SDS011;5414;59.782;16.378;2024-02-23T12:24:05;3.00;;;1.00;;
10725;SDS011;5414;59.782;16.378;2024-02-23T12:26:33;2.43;;;1.10;;
10725;SDS011;5414;59.782;16.378;2024-02-23T12:29:03;3.70;;;1.20;;
10725;SDS011;5414;59.782;16.378;2024-02-23T12:31:30;4.73;;;1.20;;
10725;SDS011;5414;59.782;16.378;2024-02-23T12:33:57;6.40;;;1.33;;
10725;SDS011;5414;59.782;16.378;2024-02-23T12:36:23;4.80;;;1.20;;
10725;SDS011;5414;59.782;16.378;2024-02-23T12:38:49;4.73;;;1.23;;
10725;SDS011;5414;59.782;16.378;2024-02-23T12:41:15;4.17;;;1.40;;
10725;SDS011;5414;59.782;16.378;2024-02-23T12:43:42;5.63;;;1.37;;
10725;SDS011;5414;59.782;16.378;2024-02-23T12:46:08;4.73;;;1.23;;
10725;SDS011;5414;59.782;16.378;2024-02-23T12:48:34;5.40;;;1.37;;
10725;SDS011;5414;59.782;16.378;2024-02-23T12:51:00;3.47;;;1.47;;
10725;SDS011;5414;59.782;16.378;2024-02-23T12:53:30;7.27;;;1.30;;
10725;SDS011;5414;59.782;16.378;2024-02-23T12:56:01;4.93;;;1.33;;
10725;SDS011;5414;59.782;16.378;2024-02-23T12:58:27;4.30;;;1.00;;
10725;SDS011;5414;59.782;16.378;2024-02-23T13:00:53;3.80;;;1.30;;
10725;SDS011;5414;59.782;16.378;2024-02-23T13:03:20;4.20;;;1.13;;
10725;SDS011;5414;59.782;16.378;2024-02-23T13:05:46;5.93;;;1.20;;
10725;SDS011;5414;59.782;16.378;2024-02-23T13:08:12;3.83;;;1.47;;
10725;SDS011;5414;59.782;16.378;2024-02-23T13:10:38;5.07;;;1.20;;
10725;SDS011;5414;59.782;16.378;2024-02-23T13:13:04;4.47;;;1.30;;
10725;SDS011;5414;59.782;16.378;2024-02-23T13:15:30;4.27;;;1.33;;
10725;SDS011;5414;59.782;16.378;2024-02-23T13:17:56;3.77;;;1.37;;
10725;SDS011;5414;59.782;16.378;2024-02-23T13:20:22;2.93;;;1.27;;
10725;SDS011;5414;59.782;16.378;2024-02-23T13:22:49;5.47;;;1.77;;
10725;SDS011;5414;59.782;16.378;2024-02-23T13:25:15;3.47;;;1.43;;
10725;SDS011;5414;59.782;16.378;2024-02-23T13:27:42;7.47;;;2.00;;
10725;SDS011;5414;59.782;16.378;2024-02-23T13:30:09;4.17;;;1.20;;
10725;SDS011;5414;59.782;16.378;2024-02-23T13:32:35;4.67;;;1.20;;
10725;SDS011;5414;59.782;16.378;2024-02-23T13:35:01;6.07;;;1.40;;
10725;SDS011;5414;59.782;16.378;2024-02-23T13:37:29;4.80;;;1.23;;
10725;SDS011;5414;59.782;16.378;2024-02-23T13:39:55;3.27;;;1.00;;
10725;SDS011;5414;59.782;16.378;2024-02-23T13:42:21;7.17;;;1.50;;
10725;SDS011;5414;59.782;16.378;2024-02-23T13:44:47;4.03;;;1.00;;
10725;SDS011;5414;59.782;16.378;2024-02-23T13:47:13;4.70;;;1.27;;
10725;SDS011;5414;59.782;16.378;2024-02-23T13:49:39;4.60;;;1.27;;
10725;SDS011;5414;59.782;16.378;2024-02-23T13:52:05;3.23;;;1.30;;
10725;SDS011;5414;59.782;16.378;2024-02-23T13:54:32;3.20;;;0.90;;
10725;SDS011;5414;59.782;16.378;2024-02-23T13:56:58;5.40;;;1.30;;
10725;SDS011;5414;59.782;16.378;2024-02-23T13:59:24;3.17;;;0.83;;
10725;SDS011;5414;59.782;16.378;2024-02-23T14:01:50;1.47;;;0.97;;
10725;SDS011;5414;59.782;16.378;2024-02-23T14:04:16;2.63;;;0.80;;
10725;SDS011;5414;59.782;16.378;2024-02-23T14:06:42;5.23;;;1.43;;
10725;SDS011;5414;59.782;16.378;2024-02-23T14:09:08;3.53;;;1.20;;
10725;SDS011;5414;59.782;16.378;2024-02-23T14:11:35;5.83;;;1.20;;
10725;SDS011;5414;59.782;16.378;2024-02-23T14:14:01;3.37;;;1.37;;
10725;SDS011;5414;59.782;16.378;2024-02-23T14:16:29;2.40;;;1.10;;
10725;SDS011;5414;59.782;16.378;2024-02-23T14:18:55;5.00;;;1.27;;
10725;SDS011;5414;59.782;16.378;2024-02-23T14:21:21;3.43;;;1.00;;
10725;SDS011;5414;59.782;16.378;2024-02-23T14:23:47;3.87;;;1.10;;
10725;SDS011;5414;59.782;16.378;2024-02-23T14:26:13;4.67;;;1.30;;
10725;SDS011;5414;59.782;16.378;2024-02-23T14:28:39;4.63;;;1.20;;